Bindy — FGD5860 — position and weather

sailwx.info

Track history (hours):
 
Tides and Currents Weather Stations Pressure Air Temp Water Temp Dewpoint Dewpoint Depression Visibility Wind Speed Wind Dir Waves Ship Positions

Bindy

Last reported at 2018-Feb-22 07:01 UTC. Time now 2018-Feb-22 07:21 UTC.
Position N 48°20' W 004°29'.

Length 36 m; draft 2 m.

Type: Passenger vessel. MMSI: 227574030.

Date/timePositionNaut miles runAvg speedWind from/ knotsBaromVisibWave heightAir tempDewpointWater temp
2018-Feb-22 07:01N 48°20' W 004°29'0 0.6
2018-Feb-22 06:31N 48°20' W 004°29'3 6.5
2018-Feb-22 06:00N 48°23' W 004°30'0 0.0
2018-Feb-22 05:31N 48°23' W 004°30'0 0.0
2018-Feb-22 05:01N 48°23' W 004°30'0 0.0
2018-Feb-22 04:31N 48°23' W 004°30'0 0.0
2018-Feb-22 04:00N 48°23' W 004°30'0 0.0
2018-Feb-22 03:31N 48°23' W 004°30'0 0.0
2018-Feb-22 03:01N 48°23' W 004°30'0 0.0
2018-Feb-22 02:30N 48°23' W 004°30'0 0.0
2018-Feb-22 02:01N 48°23' W 004°30'0 0.0
2018-Feb-22 01:31N 48°23' W 004°30'0 0.0
2018-Feb-22 01:01N 48°23' W 004°30'0 0.0
2018-Feb-22 00:31N 48°23' W 004°30'0 0.0
2018-Feb-22 00:01N 48°23' W 004°30'0 0.0
2018-Feb-21 23:31N 48°23' W 004°30'0 0.0
2018-Feb-21 23:01N 48°23' W 004°30'0 0.0
2018-Feb-21 22:31N 48°23' W 004°30'0 0.0
2018-Feb-21 22:01N 48°23' W 004°30'0 0.0
2018-Feb-21 21:31N 48°23' W 004°30'0 0.0
2018-Feb-21 21:01N 48°23' W 004°30'0 0.0
2018-Feb-21 20:31N 48°23' W 004°30'0 0.0
2018-Feb-21 20:01N 48°23' W 004°30'0 0.0
2018-Feb-21 19:31N 48°23' W 004°30'0 0.0
2018-Feb-21 19:01N 48°23' W 004°30'0 0.0
2018-Feb-21 18:31N 48°23' W 004°30'0 0.0
2018-Feb-21 18:01N 48°23' W 004°30'0 0.0
2018-Feb-21 17:31N 48°23' W 004°30'0 0.0
2018-Feb-21 17:00N 48°23' W 004°30'0 0.0
2018-Feb-21 16:30N 48°23' W 004°30'0 0.0
2018-Feb-21 16:01N 48°23' W 004°30'510.4
2018-Feb-21 15:30N 48°18' W 004°31'4 7.5
2018-Feb-21 15:01N 48°21' W 004°29'2 3.2
2018-Feb-21 14:30N 48°23' W 004°30'0 0.0
2018-Feb-21 14:00N 48°23' W 004°30'0 0.0
2018-Feb-21 13:31N 48°23' W 004°30'0 0.0
2018-Feb-21 13:00N 48°23' W 004°30'2 3.2
2018-Feb-21 12:31N 48°21' W 004°29'3 6.9
2018-Feb-21 12:01N 48°18' W 004°28'2 3.1
2018-Feb-21 11:30N 48°20' W 004°28'4 7.1
2018-Feb-21 11:01N 48°23' W 004°30'0 0.0
2018-Feb-21 10:30N 48°23' W 004°30'0 0.0
2018-Feb-21 10:00N 48°23' W 004°30'0 0.0
2018-Feb-21 09:30N 48°23' W 004°30'0 0.0
2018-Feb-21 09:00N 48°23' W 004°30'0 0.0
2018-Feb-21 08:30N 48°23' W 004°30'0 0.0
2018-Feb-21 08:00N 48°23' W 004°30'0 0.0
2018-Feb-21 07:31N 48°23' W 004°30'4 7.6
2018-Feb-21 07:00N 48°19' W 004°29'1 1.3
2018-Feb-21 06:31N 48°20' W 004°29'3 6.3
2018-Feb-21 06:00N 48°23' W 004°30'0 0.0
2018-Feb-21 05:30N 48°23' W 004°30'0 0.0
2018-Feb-21 05:00N 48°23' W 004°30'0 0.0
2018-Feb-21 04:30N 48°23' W 004°30'0 0.0
2018-Feb-21 04:01N 48°23' W 004°30'0 0.0
2018-Feb-21 03:30N 48°23' W 004°30'0 0.0
2018-Feb-21 03:01N 48°23' W 004°30'0 0.0
2018-Feb-21 02:30N 48°23' W 004°30'0 0.0
2018-Feb-21 02:00N 48°23' W 004°30'0 0.0
2018-Feb-21 01:30N 48°23' W 004°30'0 0.0
2018-Feb-21 01:00N 48°23' W 004°30'0 0.0
2018-Feb-21 00:30N 48°23' W 004°30'0 0.0
2018-Feb-21 00:00N 48°23' W 004°30'0 0.0
2018-Feb-20 23:30N 48°23' W 004°30'0 0.0
2018-Feb-20 23:01N 48°23' W 004°30'0 0.0
2018-Feb-20 22:31N 48°23' W 004°30'0 0.0
2018-Feb-20 22:00N 48°23' W 004°30'0 0.0
2018-Feb-20 21:30N 48°23' W 004°30'0 0.0
2018-Feb-20 21:00N 48°23' W 004°30'0 0.0
2018-Feb-20 20:30N 48°23' W 004°30'0 0.0
2018-Feb-20 20:00N 48°23' W 004°30'0 0.0
2018-Feb-20 19:30N 48°23' W 004°30'0 0.0
2018-Feb-20 19:01N 48°23' W 004°30'0 0.0
2018-Feb-20 18:30N 48°23' W 004°30'0 0.0
2018-Feb-20 18:00N 48°23' W 004°30'0 0.0
2018-Feb-20 17:30N 48°23' W 004°30'0 0.0
2018-Feb-20 17:01N 48°23' W 004°30'0 0.0
2018-Feb-20 16:30N 48°23' W 004°30'0 0.0
2018-Feb-20 16:00N 48°23' W 004°30'510.4
2018-Feb-20 15:30N 48°18' W 004°31'3 6.6
2018-Feb-20 15:00N 48°21' W 004°29'2 4.1
2018-Feb-20 14:31N 48°23' W 004°30'0 0.0
2018-Feb-20 14:01N 48°23' W 004°30'0 0.0
2018-Feb-20 13:30N 48°23' W 004°30'0 0.0
2018-Feb-20 13:00N 48°23' W 004°30'2 3.9
2018-Feb-20 12:30N 48°21' W 004°29'3 6.7
2018-Feb-20 12:00N 48°18' W 004°28'2 3.9
2018-Feb-20 11:31N 48°20' W 004°28'3 6.6
2018-Feb-20 11:00N 48°23' W 004°30'0 0.0
2018-Feb-20 10:30N 48°23' W 004°30'0 0.0
2018-Feb-20 10:00N 48°23' W 004°30'0 0.0
2018-Feb-20 09:30N 48°23' W 004°30'0 0.0
2018-Feb-20 09:00N 48°23' W 004°30'0 0.0
2018-Feb-20 08:30N 48°23' W 004°30'0 0.0
2018-Feb-20 08:00N 48°23' W 004°30'0 0.0
2018-Feb-20 07:30N 48°23' W 004°30'4 8.7
2018-Feb-20 07:01N 48°19' W 004°29'2 3.0
2018-Feb-20 06:31N 48°20' W 004°29'3 5.6
2018-Feb-20 06:00N 48°23' W 004°30'0 0.0
2018-Feb-20 05:31N 48°23' W 004°30'0 0.0
2018-Feb-20 05:00N 48°23' W 004°30'0 0.0
2018-Feb-20 04:31N 48°23' W 004°30'0 0.0
2018-Feb-20 04:01N 48°23' W 004°30'0 0.0
2018-Feb-20 03:31N 48°23' W 004°30'0 0.0
2018-Feb-20 03:00N 48°23' W 004°30'0 0.0
2018-Feb-20 02:31N 48°23' W 004°30'0 0.0
2018-Feb-20 02:01N 48°23' W 004°30'0 0.0
2018-Feb-20 01:31N 48°23' W 004°30'0 0.0
2018-Feb-20 01:01N 48°23' W 004°30'0 0.0
2018-Feb-20 00:31N 48°23' W 004°30'0 0.0
2018-Feb-20 00:01N 48°23' W 004°30'0 0.0
2018-Feb-19 23:30N 48°23' W 004°30'0 0.0
2018-Feb-19 23:01N 48°23' W 004°30'0 0.0
2018-Feb-19 22:30N 48°23' W 004°30'0 0.0
2018-Feb-19 22:00N 48°23' W 004°30'0 0.0
2018-Feb-19 21:31N 48°23' W 004°30'0 0.0
2018-Feb-19 21:00N 48°23' W 004°30'0 0.0
2018-Feb-19 20:30N 48°23' W 004°30'0 0.0
2018-Feb-19 20:01N 48°23' W 004°30'0 0.0
2018-Feb-19 19:30N 48°23' W 004°30'0 0.0
2018-Feb-19 19:01N 48°23' W 004°30'0 0.0
2018-Feb-19 18:31N 48°23' W 004°30'0 0.0
2018-Feb-19 18:01N 48°23' W 004°30'0 0.0
2018-Feb-19 17:31N 48°23' W 004°30'0 0.0
2018-Feb-19 17:00N 48°23' W 004°30'0 0.0
2018-Feb-19 16:30N 48°23' W 004°30'0 0.0
2018-Feb-19 16:01N 48°23' W 004°30'510.4
2018-Feb-19 15:31N 48°18' W 004°31'3 6.7
2018-Feb-19 15:01N 48°21' W 004°29'2 4.0
2018-Feb-19 14:30N 48°23' W 004°30'0 0.0
2018-Feb-19 14:00N 48°23' W 004°30'0 0.0
2018-Feb-19 13:30N 48°23' W 004°30'0 0.0
2018-Feb-19 13:00N 48°23' W 004°30'2 3.7
2018-Feb-19 12:30N 48°21' W 004°29'3 6.6
2018-Feb-19 12:00N 48°18' W 004°28'2 3.8
2018-Feb-19 11:31N 48°20' W 004°29'3 6.5
2018-Feb-19 11:00N 48°23' W 004°30'0 0.0
2018-Feb-19 10:30N 48°23' W 004°30'0 0.0
2018-Feb-19 10:00N 48°23' W 004°30'0 0.0
2018-Feb-19 09:30N 48°23' W 004°30'0 0.0
2018-Feb-19 09:00N 48°23' W 004°30'0 0.0
2018-Feb-19 08:30N 48°23' W 004°30'0 0.0
2018-Feb-19 08:00N 48°23' W 004°30'0 0.0
2018-Feb-19 07:30N 48°23' W 004°30'4 7.6
2018-Feb-19 07:00N 48°19' W 004°30'1 1.7
2018-Feb-19 06:31N 48°20' W 004°29'3 6.0
2018-Feb-19 06:00N 48°23' W 004°30'0 0.0
2018-Feb-19 05:31N 48°23' W 004°30'  
2018-Feb-16 22:05N 48°23' W 004°30'0 0.0
2018-Feb-16 22:01N 48°23' W 004°30'0 0.0
2018-Feb-16 21:31N 48°23' W 004°30'0 0.0
2018-Feb-16 21:01N 48°23' W 004°30'0 0.0
2018-Feb-16 20:31N 48°23' W 004°30'0 0.0
2018-Feb-16 20:00N 48°23' W 004°30'0 0.0
2018-Feb-16 19:30N 48°23' W 004°30'0 0.0
2018-Feb-16 19:01N 48°23' W 004°30'0 0.0
2018-Feb-16 18:31N 48°23' W 004°30'0 0.0
2018-Feb-16 18:01N 48°23' W 004°30'0 0.0
2018-Feb-16 17:30N 48°23' W 004°30'0 0.0
2018-Feb-16 17:00N 48°23' W 004°30'0 0.0
2018-Feb-16 16:30N 48°23' W 004°30'0 0.0
2018-Feb-16 16:00N 48°23' W 004°30'510.4
2018-Feb-16 15:30N 48°18' W 004°31'2 4.4
2018-Feb-16 15:01N 48°20' W 004°29'3 6.5
2018-Feb-16 14:31N 48°23' W 004°30'0 0.0
2018-Feb-16 14:00N 48°23' W 004°30'0 0.0
2018-Feb-16 13:30N 48°23' W 004°30'0 0.0
2018-Feb-16 13:01N 48°23' W 004°30'0 0.0
2018-Feb-16 12:30N 48°23' W 004°30'0 0.0
2018-Feb-16 12:01N 48°23' W 004°30'0 0.0
2018-Feb-16 11:30N 48°23' W 004°30'0 0.0
2018-Feb-16 11:00N 48°23' W 004°30'0 0.0
2018-Feb-16 10:30N 48°23' W 004°30'0 0.0
2018-Feb-16 10:00N 48°23' W 004°30'0 0.0
2018-Feb-16 09:31N 48°23' W 004°30'0 0.0
2018-Feb-16 09:00N 48°23' W 004°30'0 0.0
2018-Feb-16 08:30N 48°23' W 004°30'0 0.0
2018-Feb-16 08:00N 48°23' W 004°30'0 0.0
2018-Feb-16 07:30N 48°23' W 004°30'0 0.0
2018-Feb-16 07:00N 48°23' W 004°30'0 0.0
2018-Feb-16 06:30N 48°23' W 004°30'0 0.0
2018-Feb-16 06:00N 48°23' W 004°30'0 0.0
2018-Feb-16 05:30N 48°23' W 004°30'0 0.0
2018-Feb-16 05:00N 48°23' W 004°30'0 0.0
2018-Feb-16 04:31N 48°23' W 004°30'0 0.0
2018-Feb-16 04:00N 48°23' W 004°30'0 0.0
2018-Feb-16 03:30N 48°23' W 004°30'0 0.0
2018-Feb-16 03:00N 48°23' W 004°30'0 0.0
2018-Feb-16 02:30N 48°23' W 004°30'0 0.0
2018-Feb-16 02:00N 48°23' W 004°30'0 0.0
2018-Feb-16 01:30N 48°23' W 004°30'0 0.0
2018-Feb-16 01:00N 48°23' W 004°30'0 0.0
2018-Feb-16 00:30N 48°23' W 004°30'0 0.0
2018-Feb-16 00:00N 48°23' W 004°30'0 0.0
2018-Feb-15 23:31N 48°23' W 004°30'0 0.0
2018-Feb-15 23:00N 48°23' W 004°30'0 0.0
2018-Feb-15 22:30N 48°23' W 004°30'0 0.0
2018-Feb-15 22:00N 48°23' W 004°30'0 0.0
2018-Feb-15 21:30N 48°23' W 004°30'0 0.0
2018-Feb-15 21:00N 48°23' W 004°30'0 0.0
2018-Feb-15 20:30N 48°23' W 004°30'0 0.0
2018-Feb-15 20:00N 48°23' W 004°30'0 0.0
2018-Feb-15 19:30N 48°23' W 004°30'0 0.0
2018-Feb-15 19:00N 48°23' W 004°30'0 0.0
2018-Feb-15 18:30N 48°23' W 004°30'0 0.0
2018-Feb-15 18:00N 48°23' W 004°30'0 0.0
2018-Feb-15 17:30N 48°23' W 004°30'0 0.0
2018-Feb-15 17:01N 48°23' W 004°30'0 0.0
2018-Feb-15 16:30N 48°23' W 004°30'0 0.0
2018-Feb-15 16:00N 48°23' W 004°30'0 0.0
2018-Feb-15 15:30N 48°23' W 004°30'0 0.0
2018-Feb-15 15:00N 48°23' W 004°30'0 0.0
2018-Feb-15 14:30N 48°23' W 004°30'0 0.0
2018-Feb-15 14:00N 48°23' W 004°30'0 0.0
2018-Feb-15 13:30N 48°23' W 004°30'0 0.0
2018-Feb-15 13:00N 48°23' W 004°30'0 0.0
2018-Feb-15 10:01N 48°23' W 004°30'0 0.0
2018-Feb-15 10:00N 48°23' W 004°30'0 0.0
2018-Feb-15 09:30N 48°23' W 004°30'0 0.0
2018-Feb-15 09:00N 48°23' W 004°30'0 0.0
2018-Feb-15 08:30N 48°23' W 004°30'0 0.0
2018-Feb-15 08:00N 48°23' W 004°30'0 0.0
2018-Feb-15 07:30N 48°23' W 004°30'5 9.9
2018-Feb-15 07:01N 48°19' W 004°26'1 3.0
2018-Feb-15 06:31N 48°20' W 004°28'3 6.9
2018-Feb-15 06:00N 48°23' W 004°30'0 0.3
2018-Feb-15 05:30N 48°23' W 004°30'0 0.0
2018-Feb-15 05:00N 48°23' W 004°30'0 0.0
2018-Feb-15 04:30N 48°23' W 004°30'0 0.0
2018-Feb-15 04:00N 48°23' W 004°30'0 0.0
2018-Feb-15 03:30N 48°23' W 004°30'0 0.0
2018-Feb-15 03:00N 48°23' W 004°30'0 0.0
2018-Feb-15 02:30N 48°23' W 004°30'0 0.0
2018-Feb-15 02:00N 48°23' W 004°30'0 0.0
2018-Feb-15 01:30N 48°23' W 004°30'0 0.0
2018-Feb-15 01:00N 48°23' W 004°30'0 0.0
2018-Feb-15 00:30N 48°23' W 004°30'0 0.0
2018-Feb-15 00:00N 48°23' W 004°30'0 0.0
2018-Feb-14 23:30N 48°23' W 004°30'0 0.0
2018-Feb-14 23:00N 48°23' W 004°30'0 0.0
2018-Feb-14 22:30N 48°23' W 004°30'0 0.0
2018-Feb-14 22:00N 48°23' W 004°30'0 0.0
2018-Feb-14 21:30N 48°23' W 004°30'0 0.0
2018-Feb-14 21:00N 48°23' W 004°30'0 0.0
2018-Feb-14 20:30N 48°23' W 004°30'0 0.0
2018-Feb-14 20:00N 48°23' W 004°30'0 0.0
2018-Feb-14 19:30N 48°23' W 004°30'0 0.0
2018-Feb-14 19:00N 48°23' W 004°30'0 0.0
2018-Feb-14 18:30N 48°23' W 004°30'0 0.0
2018-Feb-14 18:00N 48°23' W 004°30'0 0.0
2018-Feb-14 17:30N 48°23' W 004°30'0 0.0
2018-Feb-14 17:00N 48°23' W 004°30'0 0.0
2018-Feb-14 16:30N 48°23' W 004°30'0 0.0
2018-Feb-14 16:00N 48°23' W 004°30'0 0.0
2018-Feb-14 15:30N 48°23' W 004°30'0 0.0
2018-Feb-14 15:01N 48°23' W 004°30'0 0.0
2018-Feb-14 14:30N 48°23' W 004°30'0 0.0
2018-Feb-14 14:00N 48°23' W 004°30'0 0.0
2018-Feb-14 13:30N 48°23' W 004°30'0 0.0
2018-Feb-14 13:00N 48°23' W 004°30'0 0.0
2018-Feb-14 12:30N 48°23' W 004°30'0 0.0
2018-Feb-14 12:00N 48°23' W 004°30'0 0.0
2018-Feb-14 11:30N 48°23' W 004°30'0 0.0
2018-Feb-14 11:00N 48°23' W 004°30'0 0.0
2018-Feb-14 10:30N 48°23' W 004°30'0 0.0
2018-Feb-14 10:00N 48°23' W 004°30'0 0.0
2018-Feb-14 09:30N 48°23' W 004°30'0 0.0
2018-Feb-14 09:00N 48°23' W 004°30'0 0.0
2018-Feb-14 08:30N 48°23' W 004°30'0 0.0
2018-Feb-14 08:00N 48°23' W 004°30'0 0.0
2018-Feb-14 07:30N 48°23' W 004°30'0 0.0
2018-Feb-14 07:00N 48°23' W 004°30'0 0.0
2018-Feb-14 06:30N 48°23' W 004°30'0 0.0
2018-Feb-14 06:00N 48°23' W 004°30'0 0.0
2018-Feb-14 05:30N 48°23' W 004°30'0 0.0
2018-Feb-14 05:00N 48°23' W 004°30'0 0.0
2018-Feb-14 04:30N 48°23' W 004°30'0 0.0
2018-Feb-14 04:00N 48°23' W 004°30'0 0.0
2018-Feb-14 03:30N 48°23' W 004°30'0 0.0
2018-Feb-14 03:00N 48°23' W 004°30'0 0.0
2018-Feb-14 02:30N 48°23' W 004°30'0 0.0
2018-Feb-14 02:00N 48°23' W 004°30'0 0.0
2018-Feb-14 01:30N 48°23' W 004°30'0 0.0
2018-Feb-14 01:00N 48°23' W 004°30'0 0.0
2018-Feb-14 00:30N 48°23' W 004°30'0 0.0
2018-Feb-14 00:00N 48°23' W 004°30'0 0.0
2018-Feb-13 23:30N 48°23' W 004°30'0 0.0
2018-Feb-13 23:00N 48°23' W 004°30'0 0.0
2018-Feb-13 22:30N 48°23' W 004°30'0 0.0
2018-Feb-13 22:00N 48°23' W 004°30'0 0.0
2018-Feb-13 21:30N 48°23' W 004°30'0 0.0
2018-Feb-13 21:00N 48°23' W 004°30'0 0.0
2018-Feb-13 20:30N 48°23' W 004°30'0 0.0
2018-Feb-13 20:00N 48°23' W 004°30'0 0.0
2018-Feb-13 19:30N 48°23' W 004°30'0 0.0
2018-Feb-13 19:00N 48°23' W 004°30'0 0.0
2018-Feb-13 18:30N 48°23' W 004°30'0 0.0
2018-Feb-13 18:00N 48°23' W 004°30'0 0.0
2018-Feb-13 17:30N 48°23' W 004°30'0 0.0
2018-Feb-13 17:00N 48°23' W 004°30'0 0.0
2018-Feb-13 16:30N 48°23' W 004°30'0 0.0
2018-Feb-13 16:00N 48°23' W 004°30'0 0.0
2018-Feb-13 15:30N 48°23' W 004°30'0 0.0
2018-Feb-13 15:00N 48°23' W 004°30'0 0.0
2018-Feb-13 14:30N 48°23' W 004°30'0 0.0
2018-Feb-13 14:00N 48°23' W 004°30'0 0.0
2018-Feb-13 13:30N 48°23' W 004°30'0 0.0
2018-Feb-13 13:00N 48°23' W 004°30'0 0.0
2018-Feb-13 12:30N 48°23' W 004°30'0 0.0
2018-Feb-13 12:00N 48°23' W 004°30'0 0.0
2018-Feb-13 11:30N 48°23' W 004°30'0 0.0
2018-Feb-13 11:00N 48°23' W 004°30'0 0.0
2018-Feb-13 10:30N 48°23' W 004°30'0 0.0
2018-Feb-13 10:00N 48°23' W 004°30'0 0.0
2018-Feb-13 09:30N 48°23' W 004°30'0 0.0
2018-Feb-13 09:00N 48°23' W 004°30'0 0.0
2018-Feb-13 08:30N 48°23' W 004°30'0 0.0
2018-Feb-13 08:00N 48°23' W 004°30'0 0.0
2018-Feb-13 07:30N 48°23' W 004°30'0 0.0
2018-Feb-13 07:00N 48°23' W 004°30'0 0.0
2018-Feb-13 06:31N 48°23' W 004°30'0 0.0
2018-Feb-13 06:00N 48°23' W 004°30'0 0.0
2018-Feb-13 05:30N 48°23' W 004°30'0 0.0
2018-Feb-13 05:00N 48°23' W 004°30'0 0.0
2018-Feb-13 04:30N 48°23' W 004°30'0 0.0
2018-Feb-13 04:00N 48°23' W 004°30'0 0.0
2018-Feb-13 03:30N 48°23' W 004°30'0 0.0
2018-Feb-13 03:00N 48°23' W 004°30'0 0.0
2018-Feb-13 02:30N 48°23' W 004°30'0 0.0
2018-Feb-13 02:00N 48°23' W 004°30'0 0.0
2018-Feb-13 01:30N 48°23' W 004°30'0 0.0
2018-Feb-13 01:00N 48°23' W 004°30'0 0.0
2018-Feb-13 00:30N 48°23' W 004°30'0 0.0
2018-Feb-13 00:01N 48°23' W 004°30'0 0.0
2018-Feb-12 23:30N 48°23' W 004°30'0 0.0
2018-Feb-12 23:00N 48°23' W 004°30'0 0.0
2018-Feb-12 22:30N 48°23' W 004°30'0 0.0
2018-Feb-12 22:00N 48°23' W 004°30'0 0.0
2018-Feb-12 21:30N 48°23' W 004°30'0 0.0
2018-Feb-12 21:00N 48°23' W 004°30'0 0.0
2018-Feb-12 20:30N 48°23' W 004°30'0 0.0
2018-Feb-12 20:00N 48°23' W 004°30'0 0.0
2018-Feb-12 19:30N 48°23' W 004°30'0 0.0
2018-Feb-12 19:00N 48°23' W 004°30'0 0.0
2018-Feb-12 18:30N 48°23' W 004°30'0 0.0
2018-Feb-12 18:00N 48°23' W 004°30'0 0.0
2018-Feb-12 17:30N 48°23' W 004°30'0 0.0
2018-Feb-12 17:00N 48°23' W 004°30'0 0.0
2018-Feb-12 16:30N 48°23' W 004°30'0 0.0
2018-Feb-12 16:00N 48°23' W 004°30'0 0.0
2018-Feb-12 15:30N 48°23' W 004°30'0 0.0
2018-Feb-12 15:00N 48°23' W 004°30'0 0.0
2018-Feb-12 14:30N 48°23' W 004°30'0 0.0
2018-Feb-12 14:00N 48°23' W 004°30'0 0.0
2018-Feb-12 13:30N 48°23' W 004°30'0 0.0
2018-Feb-12 13:00N 48°23' W 004°30'0 0.0
2018-Feb-12 12:30N 48°23' W 004°30'0 0.0
2018-Feb-12 12:00N 48°23' W 004°30'0 0.0
2018-Feb-12 11:30N 48°23' W 004°30'0 0.0
2018-Feb-12 11:00N 48°23' W 004°30'0 0.0
2018-Feb-12 10:30N 48°23' W 004°30'0 0.0
2018-Feb-12 10:00N 48°23' W 004°30'0 0.0
2018-Feb-12 09:30N 48°23' W 004°30'0 0.0
2018-Feb-12 09:00N 48°23' W 004°30'0 0.0
2018-Feb-12 08:30N 48°23' W 004°30'0 0.0
2018-Feb-12 08:00N 48°23' W 004°30'0 0.0
2018-Feb-12 07:30N 48°23' W 004°30'  
Track history (hours):
 
Tides and Currents Weather Stations Pressure Air Temp Water Temp Dewpoint Dewpoint Depression Visibility Wind Speed Wind Dir Waves Ship Positions

Bindy

Last reported at 2018-Feb-22 07:01 UTC. Time now 2018-Feb-22 07:21 UTC.
Position N 48°20' W 004°29'.

Length 36 m; draft 2 m.

Type: Passenger vessel. MMSI: 227574030.

Date/timePositionNaut miles runAvg speedWind from/ knotsBaromVisibWave heightAir tempDewpointWater temp
2018-Feb-22 07:01N 48°20' W 004°29'0 0.6
2018-Feb-22 06:31N 48°20' W 004°29'3 6.5
2018-Feb-22 06:00N 48°23' W 004°30'0 0.0
2018-Feb-22 05:31N 48°23' W 004°30'0 0.0
2018-Feb-22 05:01N 48°23' W 004°30'0 0.0
2018-Feb-22 04:31N 48°23' W 004°30'0 0.0
2018-Feb-22 04:00N 48°23' W 004°30'0 0.0
2018-Feb-22 03:31N 48°23' W 004°30'0 0.0
2018-Feb-22 03:01N 48°23' W 004°30'0 0.0
2018-Feb-22 02:30N 48°23' W 004°30'0 0.0
2018-Feb-22 02:01N 48°23' W 004°30'0 0.0
2018-Feb-22 01:31N 48°23' W 004°30'0 0.0
2018-Feb-22 01:01N 48°23' W 004°30'0 0.0
2018-Feb-22 00:31N 48°23' W 004°30'0 0.0
2018-Feb-22 00:01N 48°23' W 004°30'0 0.0
2018-Feb-21 23:31N 48°23' W 004°30'0 0.0
2018-Feb-21 23:01N 48°23' W 004°30'0 0.0
2018-Feb-21 22:31N 48°23' W 004°30'0 0.0
2018-Feb-21 22:01N 48°23' W 004°30'0 0.0
2018-Feb-21 21:31N 48°23' W 004°30'0 0.0
2018-Feb-21 21:01N 48°23' W 004°30'0 0.0
2018-Feb-21 20:31N 48°23' W 004°30'0 0.0
2018-Feb-21 20:01N 48°23' W 004°30'0 0.0
2018-Feb-21 19:31N 48°23' W 004°30'0 0.0
2018-Feb-21 19:01N 48°23' W 004°30'0 0.0
2018-Feb-21 18:31N 48°23' W 004°30'0 0.0
2018-Feb-21 18:01N 48°23' W 004°30'0 0.0
2018-Feb-21 17:31N 48°23' W 004°30'0 0.0
2018-Feb-21 17:00N 48°23' W 004°30'0 0.0
2018-Feb-21 16:30N 48°23' W 004°30'0 0.0
2018-Feb-21 16:01N 48°23' W 004°30'510.4
2018-Feb-21 15:30N 48°18' W 004°31'4 7.5
2018-Feb-21 15:01N 48°21' W 004°29'2 3.2
2018-Feb-21 14:30N 48°23' W 004°30'0 0.0
2018-Feb-21 14:00N 48°23' W 004°30'0 0.0
2018-Feb-21 13:31N 48°23' W 004°30'0 0.0
2018-Feb-21 13:00N 48°23' W 004°30'2 3.2
2018-Feb-21 12:31N 48°21' W 004°29'3 6.9
2018-Feb-21 12:01N 48°18' W 004°28'2 3.1
2018-Feb-21 11:30N 48°20' W 004°28'4 7.1
2018-Feb-21 11:01N 48°23' W 004°30'0 0.0
2018-Feb-21 10:30N 48°23' W 004°30'0 0.0
2018-Feb-21 10:00N 48°23' W 004°30'0 0.0
2018-Feb-21 09:30N 48°23' W 004°30'0 0.0
2018-Feb-21 09:00N 48°23' W 004°30'0 0.0
2018-Feb-21 08:30N 48°23' W 004°30'0 0.0
2018-Feb-21 08:00N 48°23' W 004°30'0 0.0
2018-Feb-21 07:31N 48°23' W 004°30'4 7.6
2018-Feb-21 07:00N 48°19' W 004°29'1 1.3
2018-Feb-21 06:31N 48°20' W 004°29'3 6.3
2018-Feb-21 06:00N 48°23' W 004°30'0 0.0
2018-Feb-21 05:30N 48°23' W 004°30'0 0.0
2018-Feb-21 05:00N 48°23' W 004°30'0 0.0
2018-Feb-21 04:30N 48°23' W 004°30'0 0.0
2018-Feb-21 04:01N 48°23' W 004°30'0 0.0
2018-Feb-21 03:30N 48°23' W 004°30'0 0.0
2018-Feb-21 03:01N 48°23' W 004°30'0 0.0
2018-Feb-21 02:30N 48°23' W 004°30'0 0.0
2018-Feb-21 02:00N 48°23' W 004°30'0 0.0
2018-Feb-21 01:30N 48°23' W 004°30'0 0.0
2018-Feb-21 01:00N 48°23' W 004°30'0 0.0
2018-Feb-21 00:30N 48°23' W 004°30'0 0.0
2018-Feb-21 00:00N 48°23' W 004°30'0 0.0
2018-Feb-20 23:30N 48°23' W 004°30'0 0.0
2018-Feb-20 23:01N 48°23' W 004°30'0 0.0
2018-Feb-20 22:31N 48°23' W 004°30'0 0.0
2018-Feb-20 22:00N 48°23' W 004°30'0 0.0
2018-Feb-20 21:30N 48°23' W 004°30'0 0.0
2018-Feb-20 21:00N 48°23' W 004°30'0 0.0
2018-Feb-20 20:30N 48°23' W 004°30'0 0.0
2018-Feb-20 20:00N 48°23' W 004°30'0 0.0
2018-Feb-20 19:30N 48°23' W 004°30'0 0.0
2018-Feb-20 19:01N 48°23' W 004°30'0 0.0
2018-Feb-20 18:30N 48°23' W 004°30'0 0.0
2018-Feb-20 18:00N 48°23' W 004°30'0 0.0
2018-Feb-20 17:30N 48°23' W 004°30'0 0.0
2018-Feb-20 17:01N 48°23' W 004°30'0 0.0
2018-Feb-20 16:30N 48°23' W 004°30'0 0.0
2018-Feb-20 16:00N 48°23' W 004°30'510.4
2018-Feb-20 15:30N 48°18' W 004°31'3 6.6
2018-Feb-20 15:00N 48°21' W 004°29'2 4.1
2018-Feb-20 14:31N 48°23' W 004°30'0 0.0
2018-Feb-20 14:01N 48°23' W 004°30'0 0.0
2018-Feb-20 13:30N 48°23' W 004°30'0 0.0
2018-Feb-20 13:00N 48°23' W 004°30'2 3.9
2018-Feb-20 12:30N 48°21' W 004°29'3 6.7
2018-Feb-20 12:00N 48°18' W 004°28'2 3.9
2018-Feb-20 11:31N 48°20' W 004°28'3 6.6
2018-Feb-20 11:00N 48°23' W 004°30'0 0.0
2018-Feb-20 10:30N 48°23' W 004°30'0 0.0
2018-Feb-20 10:00N 48°23' W 004°30'0 0.0
2018-Feb-20 09:30N 48°23' W 004°30'0 0.0
2018-Feb-20 09:00N 48°23' W 004°30'0 0.0
2018-Feb-20 08:30N 48°23' W 004°30'0 0.0
2018-Feb-20 08:00N 48°23' W 004°30'0 0.0
2018-Feb-20 07:30N 48°23' W 004°30'4 8.7
2018-Feb-20 07:01N 48°19' W 004°29'2 3.0
2018-Feb-20 06:31N 48°20' W 004°29'3 5.6
2018-Feb-20 06:00N 48°23' W 004°30'0 0.0
2018-Feb-20 05:31N 48°23' W 004°30'0 0.0
2018-Feb-20 05:00N 48°23' W 004°30'0 0.0
2018-Feb-20 04:31N 48°23' W 004°30'0 0.0
2018-Feb-20 04:01N 48°23' W 004°30'0 0.0
2018-Feb-20 03:31N 48°23' W 004°30'0 0.0
2018-Feb-20 03:00N 48°23' W 004°30'0 0.0
2018-Feb-20 02:31N 48°23' W 004°30'0 0.0
2018-Feb-20 02:01N 48°23' W 004°30'0 0.0
2018-Feb-20 01:31N 48°23' W 004°30'0 0.0
2018-Feb-20 01:01N 48°23' W 004°30'0 0.0
2018-Feb-20 00:31N 48°23' W 004°30'0 0.0
2018-Feb-20 00:01N 48°23' W 004°30'0 0.0
2018-Feb-19 23:30N 48°23' W 004°30'0 0.0
2018-Feb-19 23:01N 48°23' W 004°30'0 0.0
2018-Feb-19 22:30N 48°23' W 004°30'0 0.0
2018-Feb-19 22:00N 48°23' W 004°30'0 0.0
2018-Feb-19 21:31N 48°23' W 004°30'0 0.0
2018-Feb-19 21:00N 48°23' W 004°30'0 0.0
2018-Feb-19 20:30N 48°23' W 004°30'0 0.0
2018-Feb-19 20:01N 48°23' W 004°30'0 0.0
2018-Feb-19 19:30N 48°23' W 004°30'0 0.0
2018-Feb-19 19:01N 48°23' W 004°30'0 0.0
2018-Feb-19 18:31N 48°23' W 004°30'0 0.0
2018-Feb-19 18:01N 48°23' W 004°30'0 0.0
2018-Feb-19 17:31N 48°23' W 004°30'0 0.0
2018-Feb-19 17:00N 48°23' W 004°30'0 0.0
2018-Feb-19 16:30N 48°23' W 004°30'0 0.0
2018-Feb-19 16:01N 48°23' W 004°30'510.4
2018-Feb-19 15:31N 48°18' W 004°31'3 6.7
2018-Feb-19 15:01N 48°21' W 004°29'2 4.0
2018-Feb-19 14:30N 48°23' W 004°30'0 0.0
2018-Feb-19 14:00N 48°23' W 004°30'0 0.0
2018-Feb-19 13:30N 48°23' W 004°30'0 0.0
2018-Feb-19 13:00N 48°23' W 004°30'2 3.7
2018-Feb-19 12:30N 48°21' W 004°29'3 6.6
2018-Feb-19 12:00N 48°18' W 004°28'2 3.8
2018-Feb-19 11:31N 48°20' W 004°29'3 6.5
2018-Feb-19 11:00N 48°23' W 004°30'0 0.0
2018-Feb-19 10:30N 48°23' W 004°30'0 0.0
2018-Feb-19 10:00N 48°23' W 004°30'0 0.0
2018-Feb-19 09:30N 48°23' W 004°30'0 0.0
2018-Feb-19 09:00N 48°23' W 004°30'0 0.0
2018-Feb-19 08:30N 48°23' W 004°30'0 0.0
2018-Feb-19 08:00N 48°23' W 004°30'0 0.0
2018-Feb-19 07:30N 48°23' W 004°30'4 7.6
2018-Feb-19 07:00N 48°19' W 004°30'1 1.7
2018-Feb-19 06:31N 48°20' W 004°29'3 6.0
2018-Feb-19 06:00N 48°23' W 004°30'0 0.0
2018-Feb-19 05:31N 48°23' W 004°30'  
2018-Feb-16 22:05N 48°23' W 004°30'0 0.0
2018-Feb-16 22:01N 48°23' W 004°30'0 0.0
2018-Feb-16 21:31N 48°23' W 004°30'0 0.0
2018-Feb-16 21:01N 48°23' W 004°30'0 0.0
2018-Feb-16 20:31N 48°23' W 004°30'0 0.0
2018-Feb-16 20:00N 48°23' W 004°30'0 0.0
2018-Feb-16 19:30N 48°23' W 004°30'0 0.0
2018-Feb-16 19:01N 48°23' W 004°30'0 0.0
2018-Feb-16 18:31N 48°23' W 004°30'0 0.0
2018-Feb-16 18:01N 48°23' W 004°30'0 0.0
2018-Feb-16 17:30N 48°23' W 004°30'0 0.0
2018-Feb-16 17:00N 48°23' W 004°30'0 0.0
2018-Feb-16 16:30N 48°23' W 004°30'0 0.0
2018-Feb-16 16:00N 48°23' W 004°30'510.4
2018-Feb-16 15:30N 48°18' W 004°31'2 4.4
2018-Feb-16 15:01N 48°20' W 004°29'3 6.5
2018-Feb-16 14:31N 48°23' W 004°30'0 0.0
2018-Feb-16 14:00N 48°23' W 004°30'0 0.0
2018-Feb-16 13:30N 48°23' W 004°30'0 0.0
2018-Feb-16 13:01N 48°23' W 004°30'0 0.0
2018-Feb-16 12:30N 48°23' W 004°30'0 0.0
2018-Feb-16 12:01N 48°23' W 004°30'0 0.0
2018-Feb-16 11:30N 48°23' W 004°30'0 0.0
2018-Feb-16 11:00N 48°23' W 004°30'0 0.0
2018-Feb-16 10:30N 48°23' W 004°30'0 0.0
2018-Feb-16 10:00N 48°23' W 004°30'0 0.0
2018-Feb-16 09:31N 48°23' W 004°30'0 0.0
2018-Feb-16 09:00N 48°23' W 004°30'0 0.0
2018-Feb-16 08:30N 48°23' W 004°30'0 0.0
2018-Feb-16 08:00N 48°23' W 004°30'0 0.0
2018-Feb-16 07:30N 48°23' W 004°30'0 0.0
2018-Feb-16 07:00N 48°23' W 004°30'0 0.0
2018-Feb-16 06:30N 48°23' W 004°30'0 0.0
2018-Feb-16 06:00N 48°23' W 004°30'0 0.0
2018-Feb-16 05:30N 48°23' W 004°30'0 0.0
2018-Feb-16 05:00N 48°23' W 004°30'0 0.0
2018-Feb-16 04:31N 48°23' W 004°30'0 0.0
2018-Feb-16 04:00N 48°23' W 004°30'0 0.0
2018-Feb-16 03:30N 48°23' W 004°30'0 0.0
2018-Feb-16 03:00N 48°23' W 004°30'0 0.0
2018-Feb-16 02:30N 48°23' W 004°30'0 0.0
2018-Feb-16 02:00N 48°23' W 004°30'0 0.0
2018-Feb-16 01:30N 48°23' W 004°30'0 0.0
2018-Feb-16 01:00N 48°23' W 004°30'0 0.0
2018-Feb-16 00:30N 48°23' W 004°30'0 0.0
2018-Feb-16 00:00N 48°23' W 004°30'0 0.0
2018-Feb-15 23:31N 48°23' W 004°30'0 0.0
2018-Feb-15 23:00N 48°23' W 004°30'0 0.0
2018-Feb-15 22:30N 48°23' W 004°30'0 0.0
2018-Feb-15 22:00N 48°23' W 004°30'0 0.0
2018-Feb-15 21:30N 48°23' W 004°30'0 0.0
2018-Feb-15 21:00N 48°23' W 004°30'0 0.0
2018-Feb-15 20:30N 48°23' W 004°30'0 0.0
2018-Feb-15 20:00N 48°23' W 004°30'0 0.0
2018-Feb-15 19:30N 48°23' W 004°30'0 0.0
2018-Feb-15 19:00N 48°23' W 004°30'0 0.0
2018-Feb-15 18:30N 48°23' W 004°30'0 0.0
2018-Feb-15 18:00N 48°23' W 004°30'0 0.0
2018-Feb-15 17:30N 48°23' W 004°30'0 0.0
2018-Feb-15 17:01N 48°23' W 004°30'0 0.0
2018-Feb-15 16:30N 48°23' W 004°30'0 0.0
2018-Feb-15 16:00N 48°23' W 004°30'0 0.0
2018-Feb-15 15:30N 48°23' W 004°30'0 0.0
2018-Feb-15 15:00N 48°23' W 004°30'0 0.0
2018-Feb-15 14:30N 48°23' W 004°30'0 0.0
2018-Feb-15 14:00N 48°23' W 004°30'0 0.0
2018-Feb-15 13:30N 48°23' W 004°30'0 0.0
2018-Feb-15 13:00N 48°23' W 004°30'0 0.0
2018-Feb-15 10:01N 48°23' W 004°30'0 0.0
2018-Feb-15 10:00N 48°23' W 004°30'0 0.0
2018-Feb-15 09:30N 48°23' W 004°30'0 0.0
2018-Feb-15 09:00N 48°23' W 004°30'0 0.0
2018-Feb-15 08:30N 48°23' W 004°30'0 0.0
2018-Feb-15 08:00N 48°23' W 004°30'0 0.0
2018-Feb-15 07:30N 48°23' W 004°30'5 9.9
2018-Feb-15 07:01N 48°19' W 004°26'1 3.0
2018-Feb-15 06:31N 48°20' W 004°28'3 6.9
2018-Feb-15 06:00N 48°23' W 004°30'0 0.3
2018-Feb-15 05:30N 48°23' W 004°30'0 0.0
2018-Feb-15 05:00N 48°23' W 004°30'0 0.0
2018-Feb-15 04:30N 48°23' W 004°30'0 0.0
2018-Feb-15 04:00N 48°23' W 004°30'0 0.0
2018-Feb-15 03:30N 48°23' W 004°30'0 0.0
2018-Feb-15 03:00N 48°23' W 004°30'0 0.0
2018-Feb-15 02:30N 48°23' W 004°30'0 0.0
2018-Feb-15 02:00N 48°23' W 004°30'0 0.0
2018-Feb-15 01:30N 48°23' W 004°30'0 0.0
2018-Feb-15 01:00N 48°23' W 004°30'0 0.0
2018-Feb-15 00:30N 48°23' W 004°30'0 0.0
2018-Feb-15 00:00N 48°23' W 004°30'0 0.0
2018-Feb-14 23:30N 48°23' W 004°30'0 0.0
2018-Feb-14 23:00N 48°23' W 004°30'0 0.0
2018-Feb-14 22:30N 48°23' W 004°30'0 0.0
2018-Feb-14 22:00N 48°23' W 004°30'0 0.0
2018-Feb-14 21:30N 48°23' W 004°30'0 0.0
2018-Feb-14 21:00N 48°23' W 004°30'0 0.0
2018-Feb-14 20:30N 48°23' W 004°30'0 0.0
2018-Feb-14 20:00N 48°23' W 004°30'0 0.0
2018-Feb-14 19:30N 48°23' W 004°30'0 0.0
2018-Feb-14 19:00N 48°23' W 004°30'0 0.0
2018-Feb-14 18:30N 48°23' W 004°30'0 0.0
2018-Feb-14 18:00N 48°23' W 004°30'0 0.0
2018-Feb-14 17:30N 48°23' W 004°30'0 0.0
2018-Feb-14 17:00N 48°23' W 004°30'0 0.0
2018-Feb-14 16:30N 48°23' W 004°30'0 0.0
2018-Feb-14 16:00N 48°23' W 004°30'0 0.0
2018-Feb-14 15:30N 48°23' W 004°30'0 0.0
2018-Feb-14 15:01N 48°23' W 004°30'0 0.0
2018-Feb-14 14:30N 48°23' W 004°30'0 0.0
2018-Feb-14 14:00N 48°23' W 004°30'0 0.0
2018-Feb-14 13:30N 48°23' W 004°30'0 0.0
2018-Feb-14 13:00N 48°23' W 004°30'0 0.0
2018-Feb-14 12:30N 48°23' W 004°30'0 0.0
2018-Feb-14 12:00N 48°23' W 004°30'0 0.0
2018-Feb-14 11:30N 48°23' W 004°30'0 0.0
2018-Feb-14 11:00N 48°23' W 004°30'0 0.0
2018-Feb-14 10:30N 48°23' W 004°30'0 0.0
2018-Feb-14 10:00N 48°23' W 004°30'0 0.0
2018-Feb-14 09:30N 48°23' W 004°30'0 0.0
2018-Feb-14 09:00N 48°23' W 004°30'0 0.0
2018-Feb-14 08:30N 48°23' W 004°30'0 0.0
2018-Feb-14 08:00N 48°23' W 004°30'0 0.0
2018-Feb-14 07:30N 48°23' W 004°30'0 0.0
2018-Feb-14 07:00N 48°23' W 004°30'0 0.0
2018-Feb-14 06:30N 48°23' W 004°30'0 0.0
2018-Feb-14 06:00N 48°23' W 004°30'0 0.0
2018-Feb-14 05:30N 48°23' W 004°30'0 0.0
2018-Feb-14 05:00N 48°23' W 004°30'0 0.0
2018-Feb-14 04:30N 48°23' W 004°30'0 0.0
2018-Feb-14 04:00N 48°23' W 004°30'0 0.0
2018-Feb-14 03:30N 48°23' W 004°30'0 0.0
2018-Feb-14 03:00N 48°23' W 004°30'0 0.0
2018-Feb-14 02:30N 48°23' W 004°30'0 0.0
2018-Feb-14 02:00N 48°23' W 004°30'0 0.0
2018-Feb-14 01:30N 48°23' W 004°30'0 0.0
2018-Feb-14 01:00N 48°23' W 004°30'0 0.0
2018-Feb-14 00:30N 48°23' W 004°30'0 0.0
2018-Feb-14 00:00N 48°23' W 004°30'0 0.0
2018-Feb-13 23:30N 48°23' W 004°30'0 0.0
2018-Feb-13 23:00N 48°23' W 004°30'0 0.0
2018-Feb-13 22:30N 48°23' W 004°30'0 0.0
2018-Feb-13 22:00N 48°23' W 004°30'0 0.0
2018-Feb-13 21:30N 48°23' W 004°30'0 0.0
2018-Feb-13 21:00N 48°23' W 004°30'0 0.0
2018-Feb-13 20:30N 48°23' W 004°30'0 0.0
2018-Feb-13 20:00N 48°23' W 004°30'0 0.0
2018-Feb-13 19:30N 48°23' W 004°30'0 0.0
2018-Feb-13 19:00N 48°23' W 004°30'0 0.0
2018-Feb-13 18:30N 48°23' W 004°30'0 0.0
2018-Feb-13 18:00N 48°23' W 004°30'0 0.0
2018-Feb-13 17:30N 48°23' W 004°30'0 0.0
2018-Feb-13 17:00N 48°23' W 004°30'0 0.0
2018-Feb-13 16:30N 48°23' W 004°30'0 0.0
2018-Feb-13 16:00N 48°23' W 004°30'0 0.0
2018-Feb-13 15:30N 48°23' W 004°30'0 0.0
2018-Feb-13 15:00N 48°23' W 004°30'0 0.0
2018-Feb-13 14:30N 48°23' W 004°30'0 0.0
2018-Feb-13 14:00N 48°23' W 004°30'0 0.0
2018-Feb-13 13:30N 48°23' W 004°30'0 0.0
2018-Feb-13 13:00N 48°23' W 004°30'0 0.0
2018-Feb-13 12:30N 48°23' W 004°30'0 0.0
2018-Feb-13 12:00N 48°23' W 004°30'0 0.0
2018-Feb-13 11:30N 48°23' W 004°30'0 0.0
2018-Feb-13 11:00N 48°23' W 004°30'0 0.0
2018-Feb-13 10:30N 48°23' W 004°30'0 0.0
2018-Feb-13 10:00N 48°23' W 004°30'0 0.0
2018-Feb-13 09:30N 48°23' W 004°30'0 0.0
2018-Feb-13 09:00N 48°23' W 004°30'0 0.0
2018-Feb-13 08:30N 48°23' W 004°30'0 0.0
2018-Feb-13 08:00N 48°23' W 004°30'0 0.0
2018-Feb-13 07:30N 48°23' W 004°30'0 0.0
2018-Feb-13 07:00N 48°23' W 004°30'0 0.0
2018-Feb-13 06:31N 48°23' W 004°30'0 0.0
2018-Feb-13 06:00N 48°23' W 004°30'0 0.0
2018-Feb-13 05:30N 48°23' W 004°30'0 0.0
2018-Feb-13 05:00N 48°23' W 004°30'0 0.0
2018-Feb-13 04:30N 48°23' W 004°30'0 0.0
2018-Feb-13 04:00N 48°23' W 004°30'0 0.0
2018-Feb-13 03:30N 48°23' W 004°30'0 0.0
2018-Feb-13 03:00N 48°23' W 004°30'0 0.0
2018-Feb-13 02:30N 48°23' W 004°30'0 0.0
2018-Feb-13 02:00N 48°23' W 004°30'0 0.0
2018-Feb-13 01:30N 48°23' W 004°30'0 0.0
2018-Feb-13 01:00N 48°23' W 004°30'0 0.0
2018-Feb-13 00:30N 48°23' W 004°30'0 0.0
2018-Feb-13 00:01N 48°23' W 004°30'0 0.0
2018-Feb-12 23:30N 48°23' W 004°30'0 0.0
2018-Feb-12 23:00N 48°23' W 004°30'0 0.0
2018-Feb-12 22:30N 48°23' W 004°30'0 0.0
2018-Feb-12 22:00N 48°23' W 004°30'0 0.0
2018-Feb-12 21:30N 48°23' W 004°30'0 0.0
2018-Feb-12 21:00N 48°23' W 004°30'0 0.0
2018-Feb-12 20:30N 48°23' W 004°30'0 0.0
2018-Feb-12 20:00N 48°23' W 004°30'0 0.0
2018-Feb-12 19:30N 48°23' W 004°30'0 0.0
2018-Feb-12 19:00N 48°23' W 004°30'0 0.0
2018-Feb-12 18:30N 48°23' W 004°30'0 0.0
2018-Feb-12 18:00N 48°23' W 004°30'0 0.0
2018-Feb-12 17:30N 48°23' W 004°30'0 0.0
2018-Feb-12 17:00N 48°23' W 004°30'0 0.0
2018-Feb-12 16:30N 48°23' W 004°30'0 0.0
2018-Feb-12 16:00N 48°23' W 004°30'0 0.0
2018-Feb-12 15:30N 48°23' W 004°30'0 0.0
2018-Feb-12 15:00N 48°23' W 004°30'0 0.0
2018-Feb-12 14:30N 48°23' W 004°30'0 0.0
2018-Feb-12 14:00N 48°23' W 004°30'0 0.0
2018-Feb-12 13:30N 48°23' W 004°30'0 0.0
2018-Feb-12 13:00N 48°23' W 004°30'0 0.0
2018-Feb-12 12:30N 48°23' W 004°30'0 0.0
2018-Feb-12 12:00N 48°23' W 004°30'0 0.0
2018-Feb-12 11:30N 48°23' W 004°30'0 0.0
2018-Feb-12 11:00N 48°23' W 004°30'0 0.0
2018-Feb-12 10:30N 48°23' W 004°30'0 0.0
2018-Feb-12 10:00N 48°23' W 004°30'0 0.0
2018-Feb-12 09:30N 48°23' W 004°30'0 0.0
2018-Feb-12 09:00N 48°23' W 004°30'0 0.0
2018-Feb-12 08:30N 48°23' W 004°30'0 0.0
2018-Feb-12 08:00N 48°23' W 004°30'0 0.0
2018-Feb-12 07:30N 48°23' W 004°30'  

Dump ship's entire track history